Time;durP1;ratioP1;P1;durP2;ratioP2;P2;SDS_P1;SDS_P2;PMS_P1;PMS_P2;Temp;Humidity;BMP_temperature;BMP_pressure;BME280_temperature;BME280_humidity;BME280_pressure;Samples;Min_cycle;Max_cycle;Signal;HPM_P1;HPM_P2
2023/03/11 00:01:39;;;;;;;11.88;4.47;;;;;;;-2.56;56.43;98986.84;5069169;28;20044;-37
2023/03/11 00:04:06;;;;;;;5.72;2.92;;;;;;;-2.55;56.51;98986.00;5052226;28;20044;-40
2023/03/11 00:06:35;;;;;;;8.93;4.07;;;;;;;-2.56;56.34;98986.84;5069676;28;20043;-35
2023/03/11 00:09:01;;;;;;;9.55;4.38;;;;;;;-2.56;56.66;98979.22;5068597;28;20501;-39
2023/03/11 00:11:27;;;;;;;6.13;3.47;;;;;;;-2.60;56.51;98987.66;5070022;28;20739;-39
2023/03/11 00:13:53;;;;;;;8.65;4.25;;;;;;;-2.62;56.77;98986.81;5066419;28;20504;-37
2023/03/11 00:16:19;;;;;;;7.82;3.72;;;;;;;-2.64;56.84;98976.63;5058430;28;20119;-36
2023/03/11 00:18:45;;;;;;;9.43;3.92;;;;;;;-2.64;56.60;98975.78;5068675;28;20048;-39
2023/03/11 00:21:16;;;;;;;8.65;4.38;;;;;;;-2.81;56.79;98960.41;5070219;28;20078;-41
2023/03/11 00:23:42;;;;;;;8.13;3.92;;;;;;;-2.70;56.89;98976.59;5067351;28;20093;-39
2023/03/11 00:26:08;;;;;;;9.45;4.05;;;;;;;-2.76;56.87;98955.34;5069688;28;20778;-39
2023/03/11 00:28:34;;;;;;;6.85;3.67;;;;;;;-2.69;56.92;98977.44;5069475;28;20041;-38
2023/03/11 00:31:01;;;;;;;7.13;3.90;;;;;;;-2.70;56.96;98979.13;5066705;28;20040;-38
2023/03/11 00:33:27;;;;;;;9.38;3.88;;;;;;;-2.71;56.70;98979.09;5067661;28;20123;-40
2023/03/11 00:35:53;;;;;;;9.23;3.67;;;;;;;-2.71;57.01;98977.41;5068921;28;20098;-39
2023/03/11 00:38:20;;;;;;;9.68;4.10;;;;;;;-2.70;57.14;98973.19;5068721;28;20044;-38
2023/03/11 00:40:47;;;;;;;10.30;4.18;;;;;;;-2.71;57.05;98969.78;5068298;28;20040;-37
2023/03/11 00:43:13;;;;;;;8.50;4.30;;;;;;;-2.70;56.96;98970.63;5066276;28;20094;-36
2023/03/11 00:45:40;;;;;;;9.25;4.30;;;;;;;-2.76;56.91;98970.59;5083473;28;20131;-39
2023/03/11 00:48:06;;;;;;;10.32;4.57;;;;;;;-2.79;56.65;98981.63;5085008;28;20051;-39
2023/03/11 00:50:34;;;;;;;7.35;3.80;;;;;;;-2.80;56.45;98982.44;5066776;28;20450;-38
2023/03/11 00:53:01;;;;;;;12.73;4.85;;;;;;;-3.09;56.70;98933.91;5067220;28;20123;-38
2023/03/11 00:55:30;;;;;;;10.52;4.25;;;;;;;-2.81;56.71;98973.09;5068057;28;20078;-36
2023/03/11 00:57:59;;;;;;;12.75;4.55;;;;;;;-2.84;56.89;98983.28;5066255;28;20048;-39
2023/03/11 01:00:29;;;;;;;9.32;4.00;;;;;;;-2.86;56.94;98976.47;5067357;28;20037;-40
2023/03/11 01:02:56;;;;;;;8.85;4.00;;;;;;;-2.87;57.16;98973.06;5068398;28;20074;-39
2023/03/11 01:05:26;;;;;;;9.57;3.80;;;;;;;-2.86;57.48;98973.91;5067175;28;20056;-39
2023/03/11 01:07:52;;;;;;;;;;;;;;;-2.87;57.57;98978.16;5068080;28;20040;-38
2023/03/11 01:10:19;;;;;;;7.82;3.70;;;;;;;-2.97;57.50;98973.84;5067605;28;20342;-40
2023/03/11 01:12:45;;;;;;;12.27;4.53;;;;;;;-2.90;57.66;98980.69;5065989;28;20051;-35
2023/03/11 01:15:18;;;;;;;8.27;4.10;;;;;;;-2.86;57.70;98979.84;5065244;28;20044;-39
2023/03/11 01:17:44;;;;;;;11.35;4.53;;;;;;;-2.85;57.69;98975.63;5084092;28;20070;-38
2023/03/11 01:20:11;;;;;;;10.25;4.88;;;;;;;-3.08;57.86;98944.91;5067684;28;20040;-38
2023/03/11 01:22:37;;;;;;;12.07;4.43;;;;;;;-2.88;57.79;98976.47;5066613;28;20074;-39
2023/03/11 01:25:03;;;;;;;9.98;4.43;;;;;;;-3.06;57.63;98949.19;5068045;28;20044;-37
2023/03/11 01:27:29;;;;;;;9.20;4.28;;;;;;;-2.94;58.32;98978.09;5066187;28;20518;-41
2023/03/11 01:29:55;;;;;;;9.23;4.30;;;;;;;-3.01;57.94;98978.03;5050735;28;20135;-38
2023/03/11 01:32:22;;;;;;;10.48;4.68;;;;;;;-3.07;58.58;98978.00;5068783;28;20047;-36
2023/03/11 01:34:48;;;;;;;8.38;4.55;;;;;;;-3.10;58.46;98977.97;5064949;28;20050;-36
2023/03/11 01:37:14;;;;;;;11.63;4.80;;;;;;;-3.14;58.63;98972.88;5050495;28;20127;-36
2023/03/11 01:39:40;;;;;;;11.00;5.28;;;;;;;-3.20;59.21;98972.81;5067406;28;20556;-38
2023/03/11 01:42:06;;;;;;;13.18;4.88;;;;;;;-3.23;59.31;98967.69;5066320;28;20082;-37
2023/03/11 01:44:32;;;;;;;11.88;5.15;;;;;;;-3.26;58.86;98971.06;5064261;28;20128;-36
2023/03/11 01:47:00;;;;;;;15.25;6.85;;;;;;;-3.26;59.32;98967.66;5067017;28;20060;-36
2023/03/11 01:49:30;;;;;;;10.98;5.63;;;;;;;-3.29;59.64;98976.09;5063822;28;20041;-37
2023/03/11 01:52:02;;;;;;;12.65;5.75;;;;;;;-3.30;59.36;98974.41;5075523;28;20036;-38
2023/03/11 01:54:35;;;;;;;11.68;4.85;;;;;;;-3.26;59.52;98967.66;5065794;28;20040;-36
2023/03/11 01:57:04;;;;;;;10.43;5.05;;;;;;;-3.25;59.42;98969.38;5048758;28;20520;-37
2023/03/11 01:59:33;;;;;;;10.15;4.40;;;;;;;-3.53;59.46;98917.44;5049769;28;20512;-35
2023/03/11 02:02:22;;;;;;;10.13;5.07;;;;;;;-3.20;59.31;98960.94;5066901;28;20516;-35
2023/03/11 02:04:48;;;;;;;12.18;5.03;;;;;;;-3.19;59.17;98966.88;5066443;28;20290;-35
2023/03/11 02:07:15;;;;;;;12.07;5.35;;;;;;;-3.17;59.05;98963.50;5045688;28;20103;-36
2023/03/11 02:09:42;;;;;;;12.05;4.93;;;;;;;-3.14;59.15;98963.50;5057931;28;20044;-38
2023/03/11 02:12:10;;;;;;;8.98;4.88;;;;;;;-3.09;59.05;98966.13;5066980;28;20056;-38
2023/03/11 02:14:40;;;;;;;12.57;5.22;;;;;;;-3.06;58.53;98968.69;5065768;28;20044;-37
2023/03/11 02:17:06;;;;;;;10.63;4.57;;;;;;;-3.13;58.58;98969.47;5083648;28;20041;-35
2023/03/11 02:19:55;;;;;;;10.95;4.53;;;;;;;-3.11;58.91;98971.19;5068148;28;20136;-38
2023/03/11 02:22:21;;;;;;;11.07;4.85;;;;;;;-3.10;58.38;98966.97;5064828;28;20040;-40
2023/03/11 02:25:12;;;;;;;13.68;5.88;;;;;;;-3.15;58.46;98966.94;5086491;28;20055;-35
2023/03/11 02:27:40;;;;;;;9.88;4.63;;;;;;;-3.13;58.17;98957.59;5078326;28;20043;-36
2023/03/11 02:30:10;;;;;;;9.85;4.93;;;;;;;-3.11;58.40;98958.47;5070468;28;20173;-38
2023/03/11 02:32:37;;;;;;;11.23;4.25;;;;;;;-3.32;58.03;98927.78;5104000;28;20123;-35
2023/03/11 02:35:04;;;;;;;9.75;4.82;;;;;;;-3.35;57.94;98922.69;5070147;28;20041;-38
2023/03/11 02:37:30;;;;;;;12.27;5.25;;;;;;;-3.10;57.80;98965.28;5053866;28;20040;-35
2023/03/11 02:40:30;;;;;;;10.77;5.43;;;;;;;-3.07;57.63;98972.91;5070598;28;20043;-34
2023/03/11 02:42:59;;;;;;;14.63;5.15;;;;;;;-3.02;57.52;98966.16;5069308;28;20120;-39
2023/03/11 02:45:26;;;;;;;12.55;4.43;;;;;;;-3.07;57.85;98960.19;5070922;28;20051;-37
2023/03/11 02:47:54;;;;;;;9.15;4.30;;;;;;;-3.07;57.75;98964.44;5086605;28;20044;-37
2023/03/11 02:50:20;;;;;;;9.23;4.43;;;;;;;-3.18;57.82;98961.78;5070430;28;20078;-35
2023/03/11 02:52:48;;;;;;;10.80;4.47;;;;;;;-3.20;57.52;98966.03;5086488;28;20143;-37
2023/03/11 02:55:15;;;;;;;13.48;5.32;;;;;;;-3.23;57.61;98950.75;5084871;28;20615;-36
2023/03/11 02:57:41;;;;;;;11.15;5.15;;;;;;;-3.22;57.23;98957.53;5070282;28;20040;-37
2023/03/11 03:00:10;;;;;;;8.88;4.05;;;;;;;-3.19;57.58;98961.81;5052671;28;20504;-41
2023/03/11 03:02:37;;;;;;;10.88;4.63;;;;;;;-3.34;56.80;98937.09;5053533;28;20037;-39
2023/03/11 03:05:04;;;;;;;7.15;4.00;;;;;;;-3.35;57.07;98929.47;5052491;28;20045;-38
2023/03/11 03:07:31;;;;;;;10.38;4.88;;;;;;;-3.14;57.46;98960.97;5053474;28;20036;-36
2023/03/11 03:09:57;;;;;;;12.52;5.65;;;;;;;-3.15;57.73;98966.06;5052279;28;20040;-39
2023/03/11 03:12:23;;;;;;;13.50;6.25;;;;;;;-3.37;57.74;98938.75;5068673;28;20062;-38
2023/03/11 03:14:48;;;;;;;13.98;5.75;;;;;;;-3.29;57.50;98965.06;5068737;28;20062;-36
2023/03/11 03:17:15;;;;;;;11.55;4.95;;;;;;;-3.37;57.94;98959.09;5052155;28;20048;-37
2023/03/11 03:19:41;;;;;;;14.85;6.05;;;;;;;-3.54;58.00;98936.91;5070069;28;20044;-36
2023/03/11 03:22:07;;;;;;;13.18;5.55;;;;;;;-3.44;58.08;98956.47;5069950;28;20131;-35
2023/03/11 03:24:33;;;;;;;16.67;6.10;;;;;;;-3.48;57.74;98972.53;5036449;28;20045;-38
2023/03/11 03:26:59;;;;;;;11.23;4.97;;;;;;;-3.51;58.06;98969.94;5068967;28;20051;-37
2023/03/11 03:29:25;;;;;;;11.07;4.82;;;;;;;-3.52;57.79;98960.66;5069068;28;20049;-39
2023/03/11 03:31:51;;;;;;;13.60;5.97;;;;;;;-3.53;58.44;98961.47;5052995;28;20424;-38
2023/03/11 03:34:17;;;;;;;10.27;5.55;;;;;;;-3.47;58.40;98966.63;5068803;28;20053;-40
2023/03/11 03:36:43;;;;;;;12.40;5.70;;;;;;;-3.56;58.03;98946.19;5070272;28;20028;-35
2023/03/11 03:39:09;;;;;;;15.23;5.93;;;;;;;-3.42;58.09;98959.91;5067391;28;20048;-35
2023/03/11 03:41:36;;;;;;;15.63;6.07;;;;;;;-3.43;58.38;98958.19;5035100;28;20093;-38
2023/03/11 03:44:03;;;;;;;17.70;6.18;;;;;;;-3.37;58.92;98961.63;5068216;28;20048;-40
2023/03/11 03:46:31;;;;;;;11.50;5.30;;;;;;;-3.34;58.97;98951.47;5068765;28;20567;-38
2023/03/11 03:48:58;;;;;;;11.07;5.45;;;;;;;-3.37;58.92;98957.41;5069358;28;20093;-39
2023/03/11 03:51:25;;;;;;;8.43;4.80;;;;;;;-3.34;59.28;98954.88;5068639;28;20040;-38
2023/03/11 03:54:05;;;;;;;10.63;5.35;;;;;;;-3.34;59.51;98957.41;5067003;28;20056;-39
2023/03/11 03:56:31;;;;;;;10.88;5.20;;;;;;;-3.42;59.33;98933.63;5068380;28;20033;-40
2023/03/11 03:58:57;;;;;;;11.50;5.20;;;;;;;-3.26;59.60;98962.56;5067537;28;20102;-38
2023/03/11 04:01:29;;;;;;;14.63;5.22;;;;;;;-3.28;59.87;98954.94;5085693;28;20424;-41
2023/03/11 04:03:56;;;;;;;11.88;5.50;;;;;;;-3.30;60.82;98953.22;5101033;28;20377;-36
2023/03/11 04:06:25;;;;;;;13.32;4.90;;;;;;;-3.37;61.19;98947.22;5051632;28;20089;-37
2023/03/11 04:09:03;;;;;;;8.90;4.75;;;;;;;-3.40;61.31;98946.38;5052525;28;20044;-42
2023/03/11 04:11:32;;;;;;;11.52;6.13;;;;;;;-3.38;62.41;98948.06;5052316;28;20048;-37
2023/03/11 04:14:01;;;;;;;10.23;5.30;;;;;;;-3.30;61.74;98950.69;5051691;28;20544;-40
2023/03/11 04:16:28;;;;;;;12.18;6.70;;;;;;;-3.35;62.33;98947.25;5068710;28;20044;-38
2023/03/11 04:19:00;;;;;;;13.57;5.57;;;;;;;-3.38;62.62;98942.13;5085599;28;20523;-37
2023/03/11 04:21:26;;;;;;;16.45;8.27;;;;;;;-3.51;63.23;98916.59;5084897;28;20056;-38
2023/03/11 04:23:53;;;;;;;20.05;9.07;;;;;;;-3.38;63.77;98934.50;5084668;28;20089;-39
2023/03/11 04:26:27;;;;;;;22.85;8.90;;;;;;;-3.43;64.19;98932.78;5084217;28;20512;-38
2023/03/11 04:28:53;;;;;;;17.15;8.23;;;;;;;-3.71;63.99;98869.00;5068480;28;20044;-39
2023/03/11 04:31:20;;;;;;;15.55;8.27;;;;;;;-3.39;64.42;98920.09;5084696;28;20093;-37
2023/03/11 04:33:46;;;;;;;20.98;9.02;;;;;;;-3.36;64.56;98915.91;5085218;28;20135;-39
2023/03/11 04:36:12;;;;;;;21.15;9.10;;;;;;;-3.38;64.35;98919.25;5084847;28;20460;-41
2023/03/11 04:38:38;;;;;;;20.38;8.60;;;;;;;-3.36;64.92;98915.06;5067449;28;20063;-38
2023/03/11 04:41:07;;;;;;;21.40;9.18;;;;;;;-3.32;64.92;98911.69;5051898;28;20044;-38
2023/03/11 04:43:35;;;;;;;19.17;9.07;;;;;;;-3.31;65.24;98908.31;5051271;28;20044;-36
2023/03/11 04:46:01;;;;;;;20.00;8.73;;;;;;;-3.52;65.12;98873.44;5068900;28;20097;-36
2023/03/11 04:48:27;;;;;;;23.35;10.05;;;;;;;-3.60;65.43;98880.97;5050399;28;20136;-35
2023/03/11 04:50:54;;;;;;;19.55;9.13;;;;;;;-3.59;65.55;98880.13;5067402;28;20032;-36
2023/03/11 04:53:22;;;;;;;16.27;8.45;;;;;;;-3.65;65.92;98871.59;5051222;28;20067;-39
2023/03/11 04:55:49;;;;;;;20.33;8.48;;;;;;;-3.43;65.88;98903.97;5051161;28;20063;-37
2023/03/11 04:58:15;;;;;;;22.20;10.18;;;;;;;-3.59;65.92;98879.28;5031098;28;20513;-40
2023/03/11 05:00:41;;;;;;;23.42;10.50;;;;;;;-3.30;65.94;98905.81;5050002;28;20518;-38
2023/03/11 05:03:10;;;;;;;23.08;10.85;;;;;;;-3.27;66.30;98904.97;5066795;28;20105;-40
2023/03/11 05:05:38;;;;;;;25.80;11.40;;;;;;;-3.44;65.99;98870.09;5067708;28;20048;-38
2023/03/11 05:08:04;;;;;;;21.65;11.50;;;;;;;-3.44;66.46;98877.72;5066527;28;20118;-37
2023/03/11 05:10:31;;;;;;;19.98;10.02;;;;;;;-3.34;65.97;98906.59;5066558;28;20079;-38
2023/03/11 05:12:58;;;;;;;23.00;10.43;;;;;;;-3.26;66.07;98904.13;5081960;28;20520;-37
2023/03/11 05:15:30;;;;;;;28.17;10.27;;;;;;;-3.29;65.86;98902.41;5050871;28;20454;-40
2023/03/11 05:17:59;;;;;;;20.52;10.73;;;;;;;-3.25;66.75;98904.16;5048959;28;20044;-39
2023/03/11 05:20:25;;;;;;;21.73;10.32;;;;;;;-3.22;66.25;98908.38;5083876;28;20043;-40
2023/03/11 05:22:51;;;;;;;19.02;9.23;;;;;;;-3.26;66.43;98883.78;5050798;28;20417;-40
2023/03/11 05:25:17;;;;;;;24.55;10.68;;;;;;;-3.22;66.56;98895.69;5068729;28;20040;-36
2023/03/11 05:27:43;;;;;;;22.60;10.88;;;;;;;-3.14;66.10;98889.81;5066404;28;20071;-39
2023/03/11 05:30:11;;;;;;;27.30;10.82;;;;;;;-3.22;66.26;98863.50;5067470;28;20424;-36
2023/03/11 05:32:38;;;;;;;22.45;10.73;;;;;;;-3.02;66.42;98894.97;5066075;28;20064;-39
2023/03/11 05:35:06;;;;;;;22.23;9.82;;;;;;;-3.01;66.11;98906.00;5067331;28;20033;-36
2023/03/11 05:37:34;;;;;;;17.92;8.90;;;;;;;-3.09;66.15;98888.13;5050247;28;20532;-43
2023/03/11 05:40:05;;;;;;;22.30;9.80;;;;;;;-3.05;66.23;98896.66;5034378;28;20051;-35
2023/03/11 05:42:31;;;;;;;;;;;;;;;-3.05;66.75;98896.66;5067729;28;20055;-38
2023/03/11 05:44:57;;;;;;;22.15;9.45;;;;;;;-3.07;66.38;98893.25;5065590;28;19927;-38
2023/03/11 05:47:24;;;;;;;18.35;9.07;;;;;;;-2.97;66.67;98892.47;5067147;28;20075;-37
2023/03/11 05:49:50;;;;;;;17.13;7.35;;;;;;;-2.91;66.32;98892.50;5082618;28;20040;-38
2023/03/11 05:52:18;;;;;;;21.48;9.70;;;;;;;-2.81;66.60;98889.19;5066032;28;20140;-42
2023/03/11 05:54:48;;;;;;;21.40;9.30;;;;;;;-2.63;66.64;98898.63;5061928;28;20585;-40
2023/03/11 05:57:15;;;;;;;21.60;9.50;;;;;;;-2.52;66.55;98901.22;5066061;28;20052;-39
2023/03/11 05:59:41;;;;;;;19.80;9.93;;;;;;;-2.56;66.41;98885.06;5067621;28;20797;-36
2023/03/11 06:02:08;;;;;;;16.92;8.48;;;;;;;-2.48;66.50;98885.13;5064838;28;20045;-38
2023/03/11 06:04:34;;;;;;;20.38;8.73;;;;;;;-2.51;66.24;98885.94;5066611;28;20052;-41
2023/03/11 06:07:01;;;;;;;23.77;9.60;;;;;;;-2.75;66.41;98852.75;5065962;28;20036;-37
2023/03/11 06:09:31;;;;;;;23.30;10.38;;;;;;;-2.50;66.52;98884.25;5066786;28;20043;-38
2023/03/11 06:11:57;;;;;;;21.75;9.88;;;;;;;-2.41;66.48;98876.69;5066705;28;20060;-39
2023/03/11 06:14:30;;;;;;;18.77;8.93;;;;;;;-2.28;66.54;98879.28;5051728;28;20048;-39
2023/03/11 06:16:58;;;;;;;;;;;;;;;-2.28;66.09;98878.41;5050111;28;20071;-37
2023/03/11 06:19:24;;;;;;;15.23;7.20;;;;;;;-2.28;66.12;98884.34;5047882;28;19917;-36
2023/03/11 06:21:51;;;;;;;17.02;8.57;;;;;;;-2.40;66.26;98855.44;5084859;28;20685;-44
2023/03/11 06:24:18;;;;;;;15.68;6.90;;;;;;;-2.43;65.87;98886.00;5061445;28;20515;-40
2023/03/11 06:26:44;;;;;;;20.98;8.65;;;;;;;-2.52;66.28;98884.25;5049856;28;20055;-38
2023/03/11 06:29:13;;;;;;;14.60;6.63;;;;;;;-2.41;66.43;98877.53;5063904;28;20127;-35
2023/03/11 06:31:40;;;;;;;16.58;7.07;;;;;;;-2.38;66.32;98862.25;5079397;28;20040;-41
2023/03/11 06:34:10;;;;;;;17.40;7.73;;;;;;;-2.20;66.37;98869.94;5058064;28;20047;-41
2023/03/11 06:36:37;;;;;;;11.52;6.40;;;;;;;-2.39;65.87;98842.75;5067529;28;20044;-40
2023/03/11 06:39:03;;;;;;;12.40;6.45;;;;;;;-2.29;65.71;98867.38;5065532;28;20943;-40
2023/03/11 06:41:33;;;;;;;9.18;5.38;;;;;;;-2.42;65.69;98875.81;5048253;28;20036;-38
2023/03/11 06:43:59;;;;;;;12.43;6.65;;;;;;;-2.61;66.59;98871.47;5055358;28;20502;-37
2023/03/11 06:46:26;;;;;;;13.55;6.70;;;;;;;-2.79;66.39;98825.63;5086581;28;20130;-43
2023/03/11 06:48:54;;;;;;;10.80;5.72;;;;;;;-2.77;66.96;98834.09;5041827;28;20079;-40
2023/03/11 06:51:21;;;;;;;13.98;6.88;;;;;;;-2.50;66.52;98867.28;5055503;28;20036;-39
2023/03/11 06:53:49;;;;;;;11.57;6.07;;;;;;;-2.47;66.83;98866.47;5062779;28;20566;-38
2023/03/11 06:56:16;;;;;;;;;;;;;;;-2.34;66.58;98868.22;5047636;28;20046;-41
2023/03/11 06:58:47;;;;;;;9.35;5.45;;;;;;;-2.56;66.54;98867.25;5070930;28;20339;-38
2023/03/11 07:01:20;;;;;;;9.57;4.57;;;;;;;-2.67;66.60;98864.66;5051561;28;20041;-39
2023/03/11 07:03:48;;;;;;;10.10;5.70;;;;;;;-2.71;66.97;98867.19;5049109;28;20123;-39
2023/03/11 07:06:16;;;;;;;12.77;5.60;;;;;;;-2.74;67.05;98878.22;5065131;28;20083;-38
2023/03/11 07:08:43;;;;;;;13.80;5.82;;;;;;;-2.78;67.49;98871.41;5065682;28;20044;-40
2023/03/11 07:11:12;;;;;;;11.95;5.63;;;;;;;-2.72;67.56;98870.59;5065179;28;20198;-42
2023/03/11 07:13:38;;;;;;;10.65;4.70;;;;;;;-2.79;67.54;98859.53;5075351;28;20044;-42
2023/03/11 07:16:11;;;;;;;10.63;5.30;;;;;;;-2.86;67.76;98852.69;5103416;27;20049;-37
2023/03/11 07:18:38;;;;;;;8.05;4.40;;;;;;;-2.94;67.55;98828.94;5069401;28;20484;-39
2023/03/11 07:21:06;;;;;;;13.25;5.55;;;;;;;-2.64;67.93;98851.13;5063051;28;20102;-40
2023/03/11 07:23:33;;;;;;;9.50;5.10;;;;;;;-2.38;67.40;98856.31;5069030;28;20036;-43
2023/03/11 07:25:59;;;;;;;9.38;4.88;;;;;;;-2.68;66.95;98793.47;5070897;28;20040;-37
2023/03/11 07:28:25;;;;;;;10.02;5.20;;;;;;;-2.42;66.90;98839.34;5069635;28;20131;-39
2023/03/11 07:30:52;;;;;;;9.82;5.18;;;;;;;-2.49;66.84;98837.63;5068999;28;20135;-39
2023/03/11 07:33:18;;;;;;;15.93;5.55;;;;;;;-2.41;66.99;98829.19;5069473;28;20032;-42
2023/03/11 07:35:44;;;;;;;14.50;5.50;;;;;;;-2.32;67.23;98824.13;5069707;28;20154;-39
2023/03/11 07:38:10;;;;;;;10.48;4.85;;;;;;;-2.22;67.06;98825.84;5070508;28;20037;-38
2023/03/11 07:40:36;;;;;;;8.25;4.40;;;;;;;-2.27;67.05;98791.03;5050520;28;20041;-37
2023/03/11 07:43:02;;;;;;;7.70;3.63;;;;;;;-2.15;67.08;98819.06;5070643;28;20508;-41
2023/03/11 07:45:28;;;;;;;8.30;4.43;;;;;;;-2.43;67.94;98794.38;5070519;28;20037;-42
2023/03/11 07:47:54;;;;;;;11.98;5.45;;;;;;;-2.22;68.72;98810.56;5056920;28;20105;-43
2023/03/11 07:50:23;;;;;;;12.10;5.53;;;;;;;-2.11;68.71;98797.00;5068747;28;20055;-44
2023/03/11 07:52:49;;;;;;;9.95;5.15;;;;;;;-2.05;68.83;98792.78;5075979;28;20481;-37
2023/03/11 07:55:15;;;;;;;10.60;4.28;;;;;;;-2.17;67.98;98792.75;5035448;28;20036;-40
2023/03/11 07:57:41;;;;;;;5.05;3.03;;;;;;;-2.22;67.53;98791.91;5069186;28;20628;-42
2023/03/11 08:00:09;;;;;;;10.75;5.45;;;;;;;-2.31;67.40;98791.88;5067235;28;20097;-41
2023/03/11 08:02:38;;;;;;;9.15;5.18;;;;;;;-2.29;67.21;98752.00;5062183;28;20079;-40
2023/03/11 08:05:05;;;;;;;13.27;5.40;;;;;;;-1.86;66.79;98765.63;5066391;28;20040;-40
2023/03/11 08:07:31;;;;;;;12.38;4.40;;;;;;;-1.84;66.74;98741.00;5069713;28;20048;-48
2023/03/11 08:09:57;;;;;;;15.05;6.80;;;;;;;-1.65;66.09;98763.06;5070293;28;20089;-41
2023/03/11 08:12:23;;;;;;;9.38;4.95;;;;;;;-1.51;65.63;98757.94;5052089;28;20498;-43
2023/03/11 08:14:49;;;;;;;12.40;5.32;;;;;;;-1.45;65.26;98760.50;5074616;28;20043;-39
2023/03/11 08:17:15;;;;;;;12.40;5.20;;;;;;;-1.27;64.99;98752.84;5072182;28;20040;-35
2023/03/11 08:19:40;;;;;;;13.90;5.35;;;;;;;-0.91;64.62;98757.81;5066267;28;20052;-34
2023/03/11 08:22:06;;;;;;;8.68;4.95;;;;;;;-0.49;63.62;98727.84;5067491;28;20036;-34
2023/03/11 08:24:32;;;;;;;11.10;5.00;;;;;;;-0.10;62.86;98744.63;5067433;28;20462;-32
2023/03/11 08:26:59;;;;;;;11.23;5.57;;;;;;;-0.03;62.37;98744.56;5068097;28;20039;-34
2023/03/11 08:29:25;;;;;;;10.32;4.95;;;;;;;-0.14;62.16;98740.41;5047800;28;20072;-35
2023/03/11 08:31:51;;;;;;;13.27;5.35;;;;;;;-0.31;62.41;98737.09;5068303;28;20043;-36
2023/03/11 08:34:18;;;;;;;9.15;4.88;;;;;;;-0.13;62.20;98740.41;5075801;28;20135;-38
2023/03/11 08:36:44;;;;;;;9.65;5.05;;;;;;;-0.21;62.06;98710.66;5057810;28;20072;-35
2023/03/11 08:39:10;;;;;;;9.43;4.50;;;;;;;-0.15;61.90;98718.25;5066545;28;20121;-40
2023/03/11 08:41:36;;;;;;;8.95;4.85;;;;;;;-0.08;61.87;98741.22;5067280;28;20048;-37
2023/03/11 08:44:02;;;;;;;11.23;4.90;;;;;;;-0.08;61.72;98745.47;5066306;28;20059;-35
2023/03/11 08:46:34;;;;;;;12.77;5.10;;;;;;;-0.36;62.04;98731.16;5065139;28;20067;-35
2023/03/11 08:49:01;;;;;;;8.00;5.00;;;;;;;-0.35;62.10;98743.09;5086524;28;20051;-34
2023/03/11 08:51:29;;;;;;;12.43;5.00;;;;;;;-0.36;62.24;98733.72;5064858;28;20135;-36
2023/03/11 08:53:55;;;;;;;8.70;4.53;;;;;;;-0.43;62.04;98731.22;5050569;28;20529;-39
2023/03/11 08:56:21;;;;;;;7.43;4.43;;;;;;;-0.60;62.30;98735.56;5065561;28;20032;-35
2023/03/11 08:58:48;;;;;;;10.90;5.57;;;;;;;-0.61;62.77;98725.38;5063488;28;20036;-35
2023/03/11 09:01:14;;;;;;;9.70;4.85;;;;;;;-0.43;62.50;98715.91;5081863;28;20037;-36
2023/03/11 09:03:39;;;;;;;12.50;5.07;;;;;;;-0.39;62.60;98718.44;5068366;28;20055;-36
2023/03/11 09:06:08;;;;;;;11.70;5.28;;;;;;;-0.33;62.50;98723.50;5069048;28;20044;-35
2023/03/11 09:08:34;;;;;;;10.80;5.03;;;;;;;-0.58;62.54;98716.00;5067344;28;20044;-34
2023/03/11 09:11:00;;;;;;;13.20;5.55;;;;;;;-0.71;63.19;98696.50;5068780;28;20051;-35
2023/03/11 09:13:26;;;;;;;12.50;5.25;;;;;;;-0.69;63.52;98710.09;5067765;28;20051;-38
2023/03/11 09:15:53;;;;;;;9.75;5.10;;;;;;;-0.73;63.35;98715.25;5067597;28;20563;-35
2023/03/11 09:18:19;;;;;;;16.02;4.53;;;;;;;-0.99;63.32;98703.41;5067301;28;20487;-35
2023/03/11 09:20:45;;;;;;;10.68;5.22;;;;;;;-1.04;63.83;98705.16;5068537;28;20043;-36
2023/03/11 09:23:13;;;;;;;7.88;3.85;;;;;;;-1.05;63.38;98700.91;5068376;28;20040;-36
2023/03/11 09:25:39;;;;;;;7.38;3.78;;;;;;;-1.14;63.50;98683.09;5050658;28;20094;-35
2023/03/11 09:28:05;;;;;;;3.70;2.42;;;;;;;-1.38;63.75;98685.72;5066786;28;20032;-36
2023/03/11 09:30:31;;;;;;;8.13;4.00;;;;;;;-1.51;64.51;98679.78;5068374;28;20033;-36
2023/03/11 09:32:58;;;;;;;10.18;4.97;;;;;;;-1.54;64.69;98689.16;5066426;28;20048;-36
2023/03/11 09:35:23;;;;;;;14.48;5.72;;;;;;;-1.54;65.16;98695.09;5067047;28;20028;-36
2023/03/11 09:37:49;;;;;;;20.27;7.90;;;;;;;-1.56;65.27;98686.59;5068268;28;20590;-36
2023/03/11 09:40:18;;;;;;;10.10;4.72;;;;;;;-1.71;65.52;98689.19;5067119;28;20055;-36
2023/03/11 09:43:02;;;;;;;11.95;4.50;;;;;;;-1.93;66.46;98695.16;5066113;28;20496;-35
2023/03/11 09:45:30;;;;;;;9.93;4.95;;;;;;;-1.94;67.04;98686.69;5068238;28;20526;-36
2023/03/11 09:48:28;;;;;;;9.77;5.13;;;;;;;-1.89;67.21;98689.22;5050327;28;20040;-37
2023/03/11 09:51:30;;;;;;;12.93;7.32;;;;;;;-1.77;67.56;98673.91;5067043;28;20082;-35
2023/03/11 09:54:03;;;;;;;19.23;9.38;;;;;;;-1.77;67.52;98659.47;5066080;28;20040;-36
2023/03/11 09:56:30;;;;;;;14.93;7.20;;;;;;;-1.76;67.47;98660.31;5067993;28;20051;-35
2023/03/11 09:59:01;;;;;;;15.50;6.80;;;;;;;-1.87;68.02;98650.16;5066937;28;20094;-34
2023/03/11 10:01:36;;;;;;;12.95;6.85;;;;;;;-1.80;67.92;98651.84;5066787;28;20048;-35
2023/03/11 10:04:17;;;;;;;13.65;6.00;;;;;;;-1.83;67.90;98639.09;5066588;28;20078;-35
2023/03/11 10:06:47;;;;;;;13.73;6.15;;;;;;;-1.92;68.30;98658.66;5066601;28;20063;-35
2023/03/11 10:09:31;;;;;;;;;;;;;;;-1.87;68.09;98632.31;5066842;28;20409;-34
2023/03/11 10:12:12;;;;;;;10.90;4.60;;;;;;;-1.90;68.03;98636.59;5082865;28;20387;-35
2023/03/11 10:15:13;;;;;;;14.90;6.97;;;;;;;-1.85;67.89;98620.44;5067947;28;20089;-35
2023/03/11 10:17:45;;;;;;;34.42;14.70;;;;;;;-1.75;67.59;98621.28;5055758;28;20044;-36
2023/03/11 10:20:30;;;;;;;46.17;16.38;;;;;;;-1.70;67.51;98609.38;5067913;28;20048;-35
2023/03/11 10:23:13;;;;;;;21.27;9.02;;;;;;;-1.62;67.13;98602.53;5067190;28;20033;-36
2023/03/11 10:25:57;;;;;;;8.65;5.38;;;;;;;-1.60;67.01;98584.69;5067254;28;20424;-36
2023/03/11 10:28:30;;;;;;;6.90;4.32;;;;;;;-1.59;66.69;98577.06;5066410;28;20040;-34
2023/03/11 10:31:02;;;;;;;6.63;3.50;;;;;;;-1.78;66.52;98573.72;5066530;28;20053;-36
2023/03/11 10:33:37;;;;;;;9.88;4.13;;;;;;;-1.87;66.80;98563.56;5067371;28;20135;-35
2023/03/11 10:36:06;;;;;;;9.57;4.97;;;;;;;-1.72;66.74;98571.16;5067890;28;20032;-35
2023/03/11 10:38:32;;;;;;;16.35;7.38;;;;;;;-1.67;66.89;98571.13;5066121;28;20061;-35
2023/03/11 10:41:02;;;;;;;9.15;4.53;;;;;;;-1.68;66.49;98569.47;5067652;28;20036;-36
2023/03/11 10:43:38;;;;;;;9.20;4.28;;;;;;;-1.70;66.87;98568.59;5033097;28;20040;-35
2023/03/11 10:46:09;;;;;;;10.35;4.60;;;;;;;-1.82;66.42;98538.06;5066629;28;20036;-36
2023/03/11 10:48:35;;;;;;;8.50;4.10;;;;;;;-1.64;66.69;98558.41;5049001;28;20044;-36
2023/03/11 10:51:03;;;;;;;7.68;4.25;;;;;;;-1.60;66.60;98539.69;5070563;28;20051;-36
2023/03/11 10:53:30;;;;;;;7.05;4.07;;;;;;;-1.67;66.60;98539.75;5070076;28;20041;-36
2023/03/11 10:55:58;;;;;;;9.77;4.63;;;;;;;-1.61;66.73;98545.63;5071107;28;20044;-36
2023/03/11 10:58:27;;;;;;;8.50;4.35;;;;;;;-1.60;66.52;98538.84;5070522;28;20036;-35
2023/03/11 11:01:03;;;;;;;7.53;4.00;;;;;;;-1.59;66.67;98540.53;5070028;28;20573;-35
2023/03/11 11:03:30;;;;;;;11.02;4.45;;;;;;;-1.59;66.56;98538.84;5086958;28;20063;-34
2023/03/11 11:06:04;;;;;;;10.70;3.45;;;;;;;-1.63;66.56;98524.44;5071176;28;20162;-34
2023/03/11 11:08:31;;;;;;;12.13;4.80;;;;;;;-1.81;66.79;98512.59;5070752;28;20532;-36
2023/03/11 11:11:00;;;;;;;7.38;4.55;;;;;;;-1.67;66.63;98514.25;5069591;28;20422;-36
2023/03/11 11:13:34;;;;;;;12.73;5.72;;;;;;;-1.65;66.85;98510.00;5071177;28;20190;-35
2023/03/11 11:16:01;;;;;;;13.45;4.97;;;;;;;-1.64;66.58;98512.53;5086489;28;20123;-36
2023/03/11 11:18:30;;;;;;;11.77;5.72;;;;;;;-1.68;66.93;98497.28;5070334;28;20046;-36
2023/03/11 11:20:56;;;;;;;10.88;5.65;;;;;;;-1.63;66.85;98501.50;5069444;28;20494;-36
2023/03/11 11:23:46;;;;;;;25.92;10.10;;;;;;;-1.67;67.14;98509.97;5070937;28;20060;-36
2023/03/11 11:26:23;;;;;;;13.02;5.97;;;;;;;-1.63;66.79;98486.22;5069699;28;20059;-36
2023/03/11 11:29:11;;;;;;;7.38;3.47;;;;;;;-1.80;66.82;98485.44;5069893;28;20055;-35
2023/03/11 11:31:38;;;;;;;13.40;6.10;;;;;;;-1.83;67.20;98486.28;5069529;28;20140;-34
2023/03/11 11:34:32;;;;;;;10.30;5.72;;;;;;;-1.69;67.53;98480.28;5069592;28;20045;-36
2023/03/11 11:37:00;;;;;;;15.63;5.53;;;;;;;-1.67;67.39;98451.38;5064126;28;20404;-36